Time;durP1;ratioP1;P1;durP2;ratioP2;P2;SDS_P1;SDS_P2;PMS_P1;PMS_P2;Temp;Humidity;BMP_temperature;BMP_pressure;BME280_temperature;BME280_humidity;BME280_pressure;Samples;Min_cycle;Max_cycle;Signal;HPM_P1;HPM_P2
2023/11/19 00:02:26;;;;;;;21.00;9.03;;;;;;;2.66;87.91;100455.80;124428;1109;102811;-83
2023/11/19 00:04:58;;;;;;;19.53;7.67;;;;;;;2.67;85.62;100452.42;124558;1108;102057;-85
2023/11/19 00:07:29;;;;;;;19.17;8.43;;;;;;;2.66;86.70;100456.69;124452;1108;104198;-86
2023/11/19 00:10:09;;;;;;;19.77;9.57;;;;;;;2.65;86.90;100451.41;124484;1109;102051;-83
2023/11/19 00:12:44;;;;;;;22.83;9.33;;;;;;;2.64;86.59;100455.70;124482;1108;101838;-83
2023/11/19 00:15:16;;;;;;;17.20;7.33;;;;;;;2.61;85.62;100459.79;124576;1105;104285;-85
2023/11/19 00:17:48;;;;;;;19.55;8.50;;;;;;;2.57;85.89;100460.37;124486;1109;104339;-85
2023/11/19 00:20:21;;;;;;;18.60;8.87;;;;;;;2.55;86.34;100461.97;124430;1109;104207;-83
2023/11/19 00:22:53;;;;;;;19.23;8.58;;;;;;;2.50;85.41;100453.89;124435;1109;102010;-84
2023/11/19 00:25:25;;;;;;;17.20;7.95;;;;;;;2.47;85.22;100462.34;124400;1108;104342;-82
2023/11/19 00:27:57;;;;;;;19.30;8.20;;;;;;;2.44;85.38;100456.06;124444;1108;102337;-82
2023/11/19 00:30:28;;;;;;;17.23;7.77;;;;;;;2.41;84.80;100451.56;124432;1109;104341;-82
2023/11/19 00:32:59;;;;;;;17.47;8.07;;;;;;;2.37;84.75;100449.59;124367;1108;101923;-84
2023/11/19 00:35:32;;;;;;;15.60;7.23;;;;;;;2.36;84.41;100446.89;124389;1108;101850;-83
2023/11/19 00:38:04;;;;;;;16.83;7.00;;;;;;;2.30;83.27;100452.54;124408;1108;104233;-82
2023/11/19 00:40:36;;;;;;;15.90;7.23;;;;;;;2.28;83.75;100461.91;124392;1109;102100;-83
2023/11/19 00:43:07;;;;;;;16.00;7.20;;;;;;;2.27;84.12;100449.74;124418;1108;102457;-83
2023/11/19 00:45:39;;;;;;;16.20;7.57;;;;;;;2.24;83.68;100458.19;124451;1109;101974;-83
2023/11/19 00:48:10;;;;;;;17.27;6.70;;;;;;;2.24;83.48;100454.72;124408;1108;104201;-83
2023/11/19 00:50:45;;;;;;;12.57;6.43;;;;;;;2.22;83.17;100464.08;124514;1108;102284;-85
2023/11/19 00:53:16;;;;;;;14.03;6.27;;;;;;;2.21;84.10;100470.03;124533;1108;101868;-83
2023/11/19 00:55:48;;;;;;;14.10;6.23;;;;;;;2.19;82.93;100477.70;124457;1109;102045;-82
2023/11/19 00:58:19;;;;;;;14.60;6.35;;;;;;;2.17;82.50;100479.30;124427;1109;102048;-81
2023/11/19 01:00:51;;;;;;;14.60;6.10;;;;;;;2.14;81.67;100467.03;124439;1109;104300;-81
2023/11/19 01:03:22;;;;;;;10.90;5.53;;;;;;;2.12;82.22;100480.64;124438;1108;104185;-80
2023/11/19 01:05:54;;;;;;;11.47;5.10;;;;;;;2.12;82.25;100470.29;124568;1109;104291;-79
2023/11/19 01:08:26;;;;;;;10.83;5.37;;;;;;;2.13;81.95;100474.69;124468;1109;102266;-82
2023/11/19 01:10:57;;;;;;;9.40;4.75;;;;;;;2.12;82.66;100450.50;124370;1109;102105;-79
2023/11/19 01:13:29;;;;;;;10.50;5.05;;;;;;;2.15;82.01;100463.66;124473;1108;101959;-81
2023/11/19 01:16:02;;;;;;;13.10;5.53;;;;;;;2.19;83.13;100456.10;124311;1109;104393;-80
2023/11/19 01:18:33;;;;;;;11.13;5.53;;;;;;;2.22;82.93;100477.02;124505;1109;104198;-82
2023/11/19 01:21:06;;;;;;;10.37;4.80;;;;;;;2.22;82.53;100470.14;124371;1109;101975;-81
2023/11/19 01:23:38;;;;;;;11.10;5.70;;;;;;;2.25;82.84;100466.88;124417;1109;104086;-82
2023/11/19 01:26:12;;;;;;;10.93;5.63;;;;;;;2.24;82.79;100470.25;124251;1108;104243;-80
2023/11/19 01:28:44;;;;;;;13.43;5.80;;;;;;;2.25;82.84;100461.70;124361;1108;104194;-78
2023/11/19 01:31:17;;;;;;;13.00;6.03;;;;;;;2.28;83.18;100461.91;124384;1108;104338;-81
2023/11/19 01:33:49;;;;;;;11.90;5.70;;;;;;;2.28;83.06;100467.97;124292;1109;102142;-82
2023/11/19 01:36:20;;;;;;;13.77;6.10;;;;;;;2.28;83.05;100477.44;124358;1109;104188;-80
2023/11/19 01:38:52;;;;;;;12.97;5.80;;;;;;;2.26;82.68;100468.65;124312;1107;104194;-82
2023/11/19 01:41:24;;;;;;;14.87;6.10;;;;;;;2.26;82.48;100468.65;124319;1108;105542;-81
2023/11/19 01:43:56;;;;;;;14.87;6.27;;;;;;;2.26;82.88;100468.65;124378;1108;104195;-81
2023/11/19 01:46:28;;;;;;;13.77;6.20;;;;;;;2.25;82.84;100474.64;124392;1109;104258;-81
2023/11/19 01:49:00;;;;;;;11.15;5.15;;;;;;;2.23;81.69;100468.44;124278;1108;102516;-81
2023/11/19 01:51:32;;;;;;;11.47;5.50;;;;;;;2.23;82.74;100479.72;124246;1109;104134;-80
2023/11/19 01:54:04;;;;;;;13.20;5.50;;;;;;;2.24;81.66;100478.02;124332;1108;104205;-81
2023/11/19 01:56:36;;;;;;;12.63;5.67;;;;;;;2.25;82.47;100492.77;124407;1109;102016;-81
2023/11/19 01:59:09;;;;;;;16.03;6.03;;;;;;;2.22;80.39;100513.27;124308;1109;102214;-81
2023/11/19 02:01:41;;;;;;;14.13;6.23;;;;;;;2.20;82.44;100495.04;124298;1109;102167;-80
2023/11/19 02:04:14;;;;;;;13.07;6.33;;;;;;;2.23;82.35;100500.43;124325;1109;104342;-80
2023/11/19 02:06:46;;;;;;;12.40;6.30;;;;;;;2.25;81.80;100513.48;124274;1109;104268;-81
2023/11/19 02:09:19;;;;;;;16.17;6.33;;;;;;;2.24;82.69;100507.38;124301;1109;102147;-81
2023/11/19 02:11:51;;;;;;;15.23;6.63;;;;;;;2.25;82.29;100509.19;124364;1108;104281;-80
2023/11/19 02:14:27;;;;;;;13.10;6.10;;;;;;;2.21;81.86;100516.64;124485;1108;102051;-81
2023/11/19 02:16:58;;;;;;;13.40;5.93;;;;;;;2.21;81.72;100514.05;124407;1109;104285;-82
2023/11/19 02:19:30;;;;;;;10.55;4.90;;;;;;;2.20;81.70;100514.83;124577;1107;102249;-81
2023/11/19 02:22:02;;;;;;;14.10;6.07;;;;;;;2.20;81.00;100500.22;124475;1109;102223;-82
2023/11/19 02:24:35;;;;;;;12.37;5.80;;;;;;;2.18;81.04;100512.14;124551;1109;104313;-81
2023/11/19 02:27:14;;;;;;;14.97;6.50;;;;;;;2.15;80.79;100498.98;124453;1106;104121;-80
2023/11/19 02:29:47;;;;;;;14.07;6.30;;;;;;;2.13;81.13;100504.05;124589;1108;101833;-82
2023/11/19 02:32:19;;;;;;;15.20;6.53;;;;;;;2.12;80.70;100517.81;124363;1108;104108;-82
2023/11/19 02:34:52;;;;;;;17.10;6.33;;;;;;;2.10;81.05;100505.54;124493;1107;102048;-83
2023/11/19 02:37:24;;;;;;;12.50;6.17;;;;;;;2.09;80.51;100520.18;124430;1108;104245;-80
2023/11/19 02:39:56;;;;;;;16.20;6.60;;;;;;;2.10;81.35;100510.72;124524;1108;104198;-82
2023/11/19 02:42:27;;;;;;;12.73;5.70;;;;;;;2.09;81.08;100502.06;124484;1108;102219;-83
2023/11/19 02:44:59;;;;;;;13.83;5.83;;;;;;;2.07;79.51;100513.09;124443;1108;102057;-82
2023/11/19 02:47:30;;;;;;;16.03;7.40;;;;;;;2.06;80.06;100511.31;124435;1108;104223;-81
2023/11/19 02:50:02;;;;;;;15.40;6.40;;;;;;;2.06;80.90;100503.55;124441;1109;104201;-81
2023/11/19 02:52:37;;;;;;;13.80;6.45;;;;;;;2.07;81.00;100508.83;124421;1108;104335;-81
2023/11/19 02:55:12;;;;;;;14.00;6.27;;;;;;;2.07;80.98;100503.66;124373;1107;102109;-82
2023/11/19 02:57:48;;;;;;;15.37;6.93;;;;;;;2.08;81.41;100500.25;124402;1109;104287;-81
2023/11/19 03:00:23;;;;;;;14.60;6.40;;;;;;;2.07;81.01;100508.83;124368;1108;104352;-81
2023/11/19 03:02:59;;;;;;;11.40;5.93;;;;;;;2.06;81.59;100504.44;124270;1107;104354;-81
2023/11/19 03:05:31;;;;;;;13.50;6.03;;;;;;;2.05;80.27;100507.80;124412;1109;104107;-83
2023/11/19 03:08:02;;;;;;;12.85;5.85;;;;;;;2.04;80.59;100507.70;124391;1109;103244;-82
2023/11/19 03:10:34;;;;;;;16.47;7.30;;;;;;;2.04;80.61;100505.11;124430;1109;104323;-81
2023/11/19 03:13:06;;;;;;;16.60;7.23;;;;;;;2.06;81.01;100506.14;124334;1109;104194;-82
2023/11/19 03:15:37;;;;;;;14.03;6.43;;;;;;;2.04;80.21;100507.70;124432;1108;104233;-82
2023/11/19 03:18:09;;;;;;;13.77;6.27;;;;;;;2.01;80.18;100518.76;124357;1108;104214;-82
2023/11/19 03:20:40;;;;;;;15.97;6.77;;;;;;;1.99;80.14;100525.50;124324;1108;104202;-83
2023/11/19 03:23:12;;;;;;;15.70;6.90;;;;;;;1.97;79.93;100519.33;124299;1108;104189;-82
2023/11/19 03:25:44;;;;;;;13.95;6.30;;;;;;;1.95;79.79;100520.91;124468;1108;102013;-81
2023/11/19 03:28:15;;;;;;;12.77;6.27;;;;;;;1.93;80.13;100514.71;124487;1108;104245;-81
2023/11/19 03:30:47;;;;;;;14.30;6.37;;;;;;;1.91;80.27;100508.54;124440;1109;102290;-83
2023/11/19 03:33:18;;;;;;;12.57;5.20;;;;;;;1.89;78.93;100523.95;124443;1108;101884;-83
2023/11/19 03:35:51;;;;;;;15.53;6.50;;;;;;;1.86;78.66;100510.80;124354;1109;104286;-82
2023/11/19 03:38:23;;;;;;;14.57;6.13;;;;;;;1.86;78.52;100512.50;124365;1109;104297;-81
2023/11/19 03:40:54;;;;;;;10.80;4.67;;;;;;;1.82;77.67;100515.65;124362;1109;102373;-82
2023/11/19 03:43:27;;;;;;;14.10;5.60;;;;;;;1.80;78.65;100510.37;124394;1109;102367;-83
2023/11/19 03:45:58;;;;;;;15.10;6.37;;;;;;;1.82;79.74;100516.53;124378;1109;102167;-83
2023/11/19 03:48:30;;;;;;;16.13;6.47;;;;;;;1.83;79.17;100514.87;124339;1108;104198;-82
2023/11/19 03:51:01;;;;;;;14.07;6.30;;;;;;;1.83;79.47;100509.70;124437;1108;102245;-82
2023/11/19 03:53:33;;;;;;;14.80;6.15;;;;;;;1.80;78.57;100521.61;124322;1108;104246;-82
2023/11/19 03:56:05;;;;;;;14.40;5.97;;;;;;;1.77;77.95;100503.28;124316;1109;104307;-82
2023/11/19 03:58:38;;;;;;;15.13;6.30;;;;;;;1.75;79.69;100506.56;124426;1108;104201;-83
2023/11/19 04:01:14;;;;;;;12.27;5.37;;;;;;;1.74;77.71;100517.70;124352;1109;101865;-83
2023/11/19 04:03:45;;;;;;;14.87;5.93;;;;;;;1.72;78.21;100519.28;124393;1109;104303;-81
2023/11/19 04:06:17;;;;;;;13.40;5.90;;;;;;;1.70;78.11;100513.08;124328;1109;102066;-83
2023/11/19 04:08:49;;;;;;;12.53;5.57;;;;;;;1.66;77.51;100509.39;124410;1108;104044;-82
2023/11/19 04:11:21;;;;;;;12.60;5.80;;;;;;;1.61;77.81;100506.47;124456;1108;102052;-82
2023/11/19 04:13:52;;;;;;;13.80;6.00;;;;;;;1.61;77.64;100500.41;124321;1109;101919;-84
2023/11/19 04:16:29;;;;;;;12.97;5.53;;;;;;;1.57;76.99;100525.17;124452;1108;102153;-82
2023/11/19 04:19:01;;;;;;;14.17;6.10;;;;;;;1.57;77.08;100511.31;124340;1109;104189;-82
2023/11/19 04:21:33;;;;;;;13.93;5.80;;;;;;;1.55;77.30;100516.38;124346;1108;101938;-82
2023/11/19 04:24:04;;;;;;;15.17;6.57;;;;;;;1.54;77.14;100498.16;124442;1107;104182;-81
2023/11/19 04:26:36;;;;;;;13.27;6.27;;;;;;;1.49;77.30;100510.76;124331;1108;104261;-80
2023/11/19 04:29:08;;;;;;;14.60;5.20;;;;;;;1.49;77.14;100505.59;124403;1108;101830;-80
2023/11/19 04:31:40;;;;;;;12.00;5.73;;;;;;;1.49;76.56;100502.12;124411;1108;102407;-81
2023/11/19 04:34:12;;;;;;;13.75;6.15;;;;;;;1.46;76.49;100509.66;124371;1106;104335;-83
2023/11/19 04:36:43;;;;;;;14.67;6.43;;;;;;;1.45;77.78;100511.35;124402;1108;104290;-81
2023/11/19 04:39:15;;;;;;;14.03;6.10;;;;;;;1.44;76.92;100512.13;124362;1109;104246;-81
2023/11/19 04:41:52;;;;;;;13.37;6.17;;;;;;;1.44;77.26;100523.36;124452;1109;104246;-82
2023/11/19 04:44:23;;;;;;;17.93;6.23;;;;;;;1.46;77.41;100507.06;124436;1109;104319;-82
2023/11/19 04:46:55;;;;;;;15.13;7.07;;;;;;;1.47;76.72;100514.05;124379;1109;104268;-79
2023/11/19 04:49:27;;;;;;;16.93;6.40;;;;;;;1.46;77.36;100518.30;124377;1108;104191;-82
2023/11/19 04:51:59;;;;;;;16.17;6.73;;;;;;;1.44;77.20;100518.19;124431;1106;104195;-80
2023/11/19 04:54:30;;;;;;;12.80;5.67;;;;;;;1.44;75.57;100515.60;124483;1108;101993;-80
2023/11/19 04:57:02;;;;;;;15.77;6.27;;;;;;;1.42;77.00;100519.77;124362;1108;101976;-81
2023/11/19 04:59:37;;;;;;;14.80;6.37;;;;;;;1.38;76.30;100522.91;124353;1108;104252;-80
2023/11/19 05:02:09;;;;;;;12.63;6.00;;;;;;;1.38;77.36;100525.50;124365;1109;102211;-81
2023/11/19 05:04:43;;;;;;;13.57;5.63;;;;;;;1.38;76.79;100530.67;124330;1107;102323;-81
2023/11/19 05:07:15;;;;;;;12.80;5.57;;;;;;;1.35;76.07;100517.52;124452;1108;101823;-80
2023/11/19 05:09:46;;;;;;;13.47;5.53;;;;;;;1.33;76.22;100521.69;124399;1108;104221;-79
2023/11/19 05:12:18;;;;;;;13.50;6.23;;;;;;;1.32;75.75;100516.41;124434;1108;102137;-81
2023/11/19 05:14:50;;;;;;;16.93;5.90;;;;;;;1.29;76.00;100513.59;124456;1108;102038;-81
2023/11/19 05:17:22;;;;;;;15.50;6.20;;;;;;;1.30;76.77;100518.87;124370;1108;104332;-83
2023/11/19 05:19:53;;;;;;;12.70;5.77;;;;;;;1.28;76.86;100512.71;124415;1108;104178;-81
2023/11/19 05:22:25;;;;;;;16.07;6.07;;;;;;;1.26;75.98;100511.68;124448;1108;104432;-82
2023/11/19 05:24:57;;;;;;;15.10;6.60;;;;;;;1.26;76.09;100509.09;124392;1109;104210;-81
2023/11/19 05:27:28;;;;;;;16.27;6.30;;;;;;;1.22;75.46;100512.27;124451;1108;102157;-82
2023/11/19 05:30:00;;;;;;;16.60;6.60;;;;;;;1.20;75.12;100522.49;124377;1108;103304;-82
2023/11/19 05:32:32;;;;;;;15.90;6.57;;;;;;;1.18;75.52;100510.23;124438;1108;104158;-83
2023/11/19 05:35:03;;;;;;;16.23;6.47;;;;;;;1.15;75.61;100522.92;124356;1107;104191;-80
2023/11/19 05:37:35;;;;;;;15.77;7.17;;;;;;;1.11;75.60;100514.06;124308;1109;104339;-82
2023/11/19 05:40:14;;;;;;;15.63;6.17;;;;;;;1.10;75.17;100503.61;124418;1109;101855;-83
2023/11/19 05:42:45;;;;;;;14.67;6.30;;;;;;;1.09;75.74;100505.27;124328;1109;101932;-84
2023/11/19 05:45:17;;;;;;;12.30;5.33;;;;;;;1.07;75.66;100504.27;124392;1108;104287;-84
2023/11/19 05:47:49;;;;;;;14.47;5.80;;;;;;;1.05;74.92;100514.49;124347;1108;104204;-83
2023/11/19 05:50:23;;;;;;;16.05;7.35;;;;;;;1.04;75.05;100510.13;124431;1109;102376;-80
2023/11/19 05:52:55;;;;;;;16.60;6.73;;;;;;;1.05;75.52;100514.49;124411;1108;102255;-81
2023/11/19 05:55:27;;;;;;;14.45;6.20;;;;;;;1.07;74.92;100517.19;124361;1108;101878;-82
2023/11/19 05:57:59;;;;;;;18.77;7.03;;;;;;;1.06;75.53;100498.22;124443;1109;104198;-82
2023/11/19 06:00:31;;;;;;;18.47;7.73;;;;;;;1.08;74.94;100517.30;124329;1108;104191;-82
2023/11/19 06:03:03;;;;;;;16.67;6.67;;;;;;;1.10;75.69;100508.78;124303;1108;101858;-85
2023/11/19 06:05:34;;;;;;;14.00;6.40;;;;;;;1.09;74.83;100507.86;124265;1109;102245;-84
2023/11/19 06:08:06;;;;;;;15.93;6.83;;;;;;;1.07;74.40;100512.02;124348;1109;103369;-80
2023/11/19 06:10:39;;;;;;;17.70;7.03;;;;;;;1.08;74.41;100519.00;124439;1108;104728;-81
2023/11/19 06:13:11;;;;;;;18.67;6.30;;;;;;;1.10;74.42;100514.84;124480;1108;104125;-83
2023/11/19 06:15:43;;;;;;;17.77;7.20;;;;;;;1.10;74.12;100517.42;124454;1109;102712;-80
2023/11/19 06:18:14;;;;;;;15.73;7.43;;;;;;;1.09;74.56;100494.94;124569;1109;101947;-84
2023/11/19 06:20:46;;;;;;;17.87;6.10;;;;;;;1.10;74.78;100499.33;124506;1109;104185;-83
2023/11/19 06:23:18;;;;;;;13.87;6.33;;;;;;;1.12;74.14;100502.91;124432;1108;102272;-81
2023/11/19 06:25:49;;;;;;;18.17;6.83;;;;;;;1.12;73.17;100512.36;124405;1109;102002;-82
2023/11/19 06:28:21;;;;;;;17.73;7.17;;;;;;;1.12;73.84;100513.25;124491;1108;107020;-82
2023/11/19 06:30:52;;;;;;;14.80;6.53;;;;;;;1.15;74.13;100494.50;124505;1108;104274;-82
2023/11/19 06:33:24;;;;;;;14.93;6.37;;;;;;;1.15;73.70;100491.91;124432;1109;101954;-80
2023/11/19 06:35:55;;;;;;;15.43;6.50;;;;;;;1.17;74.12;100498.08;124364;1108;102215;-82
2023/11/19 06:38:27;;;;;;;15.70;6.80;;;;;;;1.22;74.08;100494.17;124455;1109;119029;-85
2023/11/19 06:40:58;;;;;;;14.90;6.47;;;;;;;1.25;73.77;100500.45;124326;1109;101887;-80
2023/11/19 06:43:30;;;;;;;14.77;6.43;;;;;;;1.30;74.07;100508.54;124369;1106;104300;-83
2023/11/19 06:46:01;;;;;;;13.83;6.17;;;;;;;1.34;74.60;100504.48;124416;1109;104297;-81
2023/11/19 06:48:33;;;;;;;15.13;6.53;;;;;;;1.38;74.01;100504.81;124406;1108;102061;-81
2023/11/19 06:51:08;;;;;;;15.60;6.37;;;;;;;1.41;74.05;100493.80;124423;1109;102375;-81
2023/11/19 06:53:40;;;;;;;15.13;6.50;;;;;;;1.44;74.08;100494.91;124397;1109;102199;-83
2023/11/19 06:56:22;;;;;;;13.80;6.03;;;;;;;1.46;73.26;100502.78;124706;1109;102004;-82
2023/11/19 06:58:54;;;;;;;15.03;5.53;;;;;;;1.44;70.89;100502.67;124386;1109;111935;-84
2023/11/19 07:01:26;;;;;;;13.57;6.20;;;;;;;1.44;72.02;100502.67;124408;1107;101992;-80
2023/11/19 07:03:58;;;;;;;13.57;5.90;;;;;;;1.49;72.24;100510.76;124536;1108;102488;-81
2023/11/19 07:06:29;;;;;;;13.57;6.20;;;;;;;1.55;72.60;100511.20;124419;1108;102192;-81
2023/11/19 07:09:06;;;;;;;12.50;5.43;;;;;;;1.61;71.48;100527.16;124807;1109;102185;-80
2023/11/19 07:11:38;;;;;;;12.83;5.73;;;;;;;1.65;70.68;100509.28;125008;1106;102038;-80
2023/11/19 07:14:11;;;;;;;12.93;5.60;;;;;;;1.67;70.48;100510.27;125016;1109;104272;-80
2023/11/19 07:16:42;;;;;;;13.70;6.00;;;;;;;1.72;71.95;100517.59;124780;1109;102181;-79
2023/11/19 07:19:15;;;;;;;12.07;5.30;;;;;;;1.82;71.12;100520.83;124776;1108;101780;-83
2023/11/19 07:21:46;;;;;;;14.83;6.10;;;;;;;1.87;71.70;100519.45;124800;1108;102132;-80
2023/11/19 07:24:18;;;;;;;13.90;6.10;;;;;;;1.92;70.77;100525.88;124602;1108;101946;-81
2023/11/19 07:26:50;;;;;;;11.33;5.73;;;;;;;1.96;70.96;100507.16;124456;1108;102228;-81
2023/11/19 07:29:22;;;;;;;13.37;5.67;;;;;;;1.98;69.35;100518.55;124830;1108;104189;-82
2023/11/19 07:31:53;;;;;;;12.67;5.63;;;;;;;1.93;68.70;100502.69;124768;1109;101799;-81
2023/11/19 07:34:25;;;;;;;12.90;6.10;;;;;;;1.90;70.06;100486.03;124763;1108;104118;-83
2023/11/19 07:36:59;;;;;;;14.13;6.13;;;;;;;1.90;70.37;100488.61;124601;1107;104230;-82
2023/11/19 07:39:31;;;;;;;15.47;6.03;;;;;;;1.86;69.75;100517.67;124408;1108;101983;-82
2023/11/19 07:42:02;;;;;;;14.23;5.40;;;;;;;1.76;69.04;100495.41;124756;1108;104252;-83
2023/11/19 07:44:34;;;;;;;15.07;5.67;;;;;;;1.69;69.28;100488.91;124500;1107;101941;-81
2023/11/19 07:47:05;;;;;;;14.73;6.20;;;;;;;1.69;70.27;100495.78;124708;1109;101907;-82
2023/11/19 07:49:38;;;;;;;10.93;5.33;;;;;;;1.72;70.45;100494.30;124618;1106;101856;-82
2023/11/19 07:52:10;;;;;;;15.90;6.80;;;;;;;1.74;70.44;100497.88;124532;1108;102425;-83
2023/11/19 07:54:41;;;;;;;14.67;6.83;;;;;;;1.77;70.00;100510.16;124551;1108;102026;-84
2023/11/19 07:57:13;;;;;;;17.43;6.83;;;;;;;1.73;69.51;100513.30;124543;1109;104083;-82
2023/11/19 07:59:44;;;;;;;16.30;6.77;;;;;;;1.71;69.66;100510.60;124633;1109;102095;-83
2023/11/19 08:02:15;;;;;;;16.03;6.40;;;;;;;1.72;69.82;100509.83;125101;1108;102045;-81
2023/11/19 08:04:49;;;;;;;14.17;6.60;;;;;;;1.70;70.38;100514.00;124896;1109;102151;-81
2023/11/19 08:07:21;;;;;;;14.20;6.30;;;;;;;1.73;70.02;100514.22;125128;1108;101953;-81
2023/11/19 08:09:53;;;;;;;12.73;4.63;;;;;;;1.74;68.55;100518.58;124731;1108;102368;-80
2023/11/19 08:12:25;;;;;;;13.27;6.10;;;;;;;1.75;69.50;100509.16;124491;1108;104105;-81
2023/11/19 08:14:58;;;;;;;15.63;6.73;;;;;;;1.80;69.31;100513.84;124428;1109;104304;-82
2023/11/19 08:17:29;;;;;;;14.27;6.07;;;;;;;1.84;68.74;100514.06;124468;1108;102054;-81
2023/11/19 08:20:01;;;;;;;13.17;5.60;;;;;;;1.82;67.96;100511.36;124874;1109;101997;-81
2023/11/19 08:22:32;;;;;;;12.90;5.60;;;;;;;1.78;68.06;100522.31;124431;1109;102214;-82
2023/11/19 08:25:04;;;;;;;13.70;6.37;;;;;;;1.77;68.11;100511.04;124434;1107;101884;-80
2023/11/19 08:27:39;;;;;;;12.23;5.73;;;;;;;1.78;68.57;100502.50;124622;1109;104188;-82
2023/11/19 08:30:14;;;;;;;12.80;6.23;;;;;;;1.83;68.05;100502.82;124711;1107;101905;-84
2023/11/19 08:32:45;;;;;;;14.27;6.23;;;;;;;1.86;68.09;100503.04;124698;1109;104207;-83
2023/11/19 08:35:20;;;;;;;14.47;6.43;;;;;;;1.85;67.12;100518.45;124453;1109;102080;-81
2023/11/19 08:37:49;;;;;;;;;;;;;;;1.82;67.61;100505.30;124417;1108;102064;-83
2023/11/19 08:40:21;;;;;;;14.00;6.73;;;;;;;1.84;68.54;100499.45;124397;1108;101886;-82
2023/11/19 08:42:52;;;;;;;17.13;7.40;;;;;;;1.91;69.31;100493.02;124339;1109;104281;-80
2023/11/19 08:45:26;;;;;;;13.57;6.37;;;;;;;1.93;68.22;100492.34;124437;1106;102357;-82
2023/11/19 08:47:58;;;;;;;15.13;6.60;;;;;;;1.92;68.42;100495.70;124163;1108;104268;-81
2023/11/19 08:50:29;;;;;;;14.57;6.50;;;;;;;1.90;68.34;100494.72;124393;1108;104223;-82
2023/11/19 08:53:01;;;;;;;14.50;6.37;;;;;;;1.83;67.59;100496.77;124481;1109;102204;-82
2023/11/19 08:55:32;;;;;;;12.27;5.97;;;;;;;1.74;68.00;100500.47;124592;1107;104201;-84
2023/11/19 08:58:08;;;;;;;15.33;6.30;;;;;;;1.71;67.80;100492.49;124869;1109;102361;-81
2023/11/19 09:00:57;;;;;;;12.97;6.07;;;;;;;1.66;68.01;100493.86;124491;1109;104322;-81
2023/11/19 09:03:32;;;;;;;14.07;6.17;;;;;;;1.65;68.47;100498.92;124624;1109;101921;-84
2023/11/19 09:06:04;;;;;;;15.53;6.47;;;;;;;1.64;68.31;100492.87;124416;1108;104137;-83
2023/11/19 09:08:36;;;;;;;13.70;6.33;;;;;;;1.61;67.67;100500.41;124415;1109;104278;-86
2023/11/19 09:11:11;;;;;;;15.70;7.27;;;;;;;1.60;68.74;100493.43;124341;1109;104325;-85
2023/11/19 09:13:45;;;;;;;13.27;5.87;;;;;;;1.57;67.85;100500.97;124392;1109;102385;-83
2023/11/19 09:16:16;;;;;;;14.87;6.13;;;;;;;1.48;67.61;100503.81;124518;1109;104291;-82
2023/11/19 09:18:48;;;;;;;15.30;6.57;;;;;;;1.45;68.10;100493.25;124741;1109;104179;-85
2023/11/19 09:21:19;;;;;;;15.10;6.83;;;;;;;1.42;68.23;100482.69;124662;1108;104137;-83
2023/11/19 09:23:51;;;;;;;15.33;7.40;;;;;;;1.42;68.07;100487.86;124606;1108;102034;-83
2023/11/19 09:26:22;;;;;;;14.60;6.37;;;;;;;1.42;68.04;100493.91;124345;1109;103673;-84
2023/11/19 09:28:54;;;;;;;14.70;6.60;;;;;;;1.41;68.11;100479.17;124258;1109;102028;-81
2023/11/19 09:31:25;;;;;;;16.00;7.10;;;;;;;1.43;68.52;100479.29;124317;1108;104194;-82
2023/11/19 09:33:57;;;;;;;17.23;7.50;;;;;;;1.44;68.75;100475.92;124259;1109;101859;-82
2023/11/19 09:36:28;;;;;;;17.30;6.75;;;;;;;1.46;68.60;100463.11;124343;1107;101984;-80
2023/11/19 09:39:01;;;;;;;16.37;7.60;;;;;;;1.45;68.75;100457.05;124323;1108;102024;-83
2023/11/19 09:41:34;;;;;;;13.20;5.90;;;;;;;1.48;67.35;100459.85;124477;1109;104201;-84
2023/11/19 09:44:06;;;;;;;12.03;6.07;;;;;;;1.42;67.47;100468.06;124389;1108;102063;-82
2023/11/19 09:46:38;;;;;;;14.63;6.13;;;;;;;1.37;67.57;100464.25;124611;1109;104316;-81
2023/11/19 09:49:11;;;;;;;12.67;6.17;;;;;;;1.38;67.64;100459.97;124417;1108;101933;-82
2023/11/19 09:51:43;;;;;;;15.95;7.08;;;;;;;1.41;68.18;100432.63;124365;1108;102148;-81
2023/11/19 09:54:15;;;;;;;16.53;6.90;;;;;;;1.47;68.58;100439.05;124513;1109;104246;-81
2023/11/19 09:56:47;;;;;;;15.20;6.10;;;;;;;1.47;67.40;100446.81;124224;1108;104253;-82
2023/11/19 09:59:19;;;;;;;12.50;6.50;;;;;;;1.46;68.33;100426.91;124405;1109;101863;-82
2023/11/19 10:01:51;;;;;;;14.90;7.07;;;;;;;1.40;67.60;100435.11;124377;1109;102333;-82
2023/11/19 10:04:24;;;;;;;14.07;6.63;;;;;;;1.39;67.41;100422.99;124306;1108;104196;-82
2023/11/19 10:06:55;;;;;;;15.43;7.10;;;;;;;1.38;67.56;100423.77;124400;1108;104224;-79
2023/11/19 10:09:27;;;;;;;17.87;7.60;;;;;;;1.39;67.77;100421.30;124265;1109;104696;-82
2023/11/19 10:11:58;;;;;;;17.50;6.97;;;;;;;1.41;67.66;100424.88;124313;1108;102202;-82
2023/11/19 10:14:31;;;;;;;14.00;7.00;;;;;;;1.41;67.96;100435.22;124285;1109;104195;-81
2023/11/19 10:17:04;;;;;;;13.43;6.23;;;;;;;1.42;67.00;100421.52;124283;1108;101881;-79
2023/11/19 10:19:35;;;;;;;14.30;7.13;;;;;;;1.39;67.19;100416.13;124269;1109;104262;-79
2023/11/19 10:22:09;;;;;;;15.57;7.10;;;;;;;1.39;67.28;100410.95;124164;1109;102541;-80
2023/11/19 10:24:40;;;;;;;13.83;6.97;;;;;;;1.44;66.93;100424.20;124365;1109;104265;-80
2023/11/19 10:27:14;;;;;;;16.77;7.43;;;;;;;1.44;67.12;100427.68;124390;1109;104236;-81
2023/11/19 10:29:48;;;;;;;18.40;7.25;;;;;;;1.41;66.76;100426.58;124438;1109;102548;-80
2023/11/19 10:32:20;;;;;;;15.33;6.77;;;;;;;1.42;67.71;100413.76;124386;1109;104192;-78
2023/11/19 10:34:54;;;;;;;14.70;7.22;;;;;;;1.44;67.28;100412.16;124429;1109;102009;-81
2023/11/19 10:37:32;;;;;;;14.57;6.80;;;;;;;1.43;67.00;100418.16;124500;1108;104287;-80
2023/11/19 10:40:05;;;;;;;14.35;6.80;;;;;;;1.47;67.32;100408.02;124378;1109;104328;-80
2023/11/19 10:42:36;;;;;;;16.63;6.97;;;;;;;1.53;66.84;100419.69;124361;1108;104188;-79
2023/11/19 10:45:24;;;;;;;14.70;6.87;;;;;;;1.47;66.91;100423.54;124460;1109;104153;-81
2023/11/19 10:47:58;;;;;;;16.57;6.70;;;;;;;1.43;67.21;100425.91;124323;1109;104223;-81
2023/11/19 10:50:30;;;;;;;14.03;6.37;;;;;;;1.40;67.08;100425.69;124331;1109;104248;-81
2023/11/19 10:53:03;;;;;;;16.35;7.45;;;;;;;1.37;67.05;100427.14;124307;1109;104249;-81
2023/11/19 10:55:36;;;;;;;14.57;6.53;;;;;;;1.37;66.52;100422.88;124344;1109;104198;-82
2023/11/19 10:58:09;;;;;;;14.00;6.90;;;;;;;1.36;67.06;100421.08;124371;1109;102138;-82
2023/11/19 11:00:48;;;;;;;13.93;6.62;;;;;;;1.38;66.62;100408.26;124412;1109;104323;-79
2023/11/19 11:03:23;;;;;;;12.70;5.93;;;;;;;1.40;66.28;100424.77;124288;1108;104159;-82
2023/11/19 11:05:53;;;;;;;;;;;;;;;1.38;66.57;100403.98;124555;1109;102109;-82
2023/11/19 11:08:25;;;;;;;12.87;6.10;;;;;;;1.38;66.61;100414.31;124257;1109;104214;-81
2023/11/19 11:10:59;;;;;;;15.47;6.77;;;;;;;1.38;66.44;100400.50;124325;1109;104373;-83
2023/11/19 11:13:32;;;;;;;13.70;6.60;;;;;;;1.38;66.74;100398.80;124251;1109;104294;-81
2023/11/19 11:16:07;;;;;;;14.80;6.93;;;;;;;1.41;66.46;100411.06;124231;1108;102006;-80
2023/11/19 11:18:39;;;;;;;14.47;6.70;;;;;;;1.46;66.81;100409.69;124167;1108;102095;-79
2023/11/19 11:21:16;;;;;;;16.60;7.40;;;;;;;1.48;66.35;100405.55;124129;1107;104201;-79
2023/11/19 11:24:19;;;;;;;15.97;7.30;;;;;;;1.53;66.66;100405.87;124244;1108;104198;-81
2023/11/19 11:27:18;;;;;;;16.80;7.63;;;;;;;1.56;66.18;100413.84;124312;1109;102176;-81
2023/11/19 11:30:01;;;;;;;14.53;6.67;;;;;;;1.54;65.88;100416.32;124354;1108;104693;-80
2023/11/19 11:32:42;;;;;;;14.33;6.87;;;;;;;1.53;66.11;100404.17;124344;1109;104242;-81
2023/11/19 11:35:30;;;;;;;13.13;6.67;;;;;;;1.48;65.56;100404.62;124397;1108;104332;-80